Time;durP1;ratioP1;P1;durP2;ratioP2;P2;SDS_P1;SDS_P2;PMS_P1;PMS_P2;Temp;Humidity;BMP_temperature;BMP_pressure;BME280_temperature;BME280_humidity;BME280_pressure;Samples;Min_cycle;Max_cycle;Signal;HPM_P1;HPM_P2
2023/11/28 00:00:13;;;;;;;11.48;4.57;;;3.50;92.70;;;;;;4989982;28;20144;-75
2023/11/28 00:02:39;;;;;;;8.27;4.53;;;3.50;92.30;;;;;;4989626;28;20053;-74
2023/11/28 00:05:05;;;;;;;10.40;4.55;;;3.50;92.70;;;;;;4988908;28;20058;-74
2023/11/28 00:07:33;;;;;;;13.10;5.63;;;3.40;93.40;;;;;;4991042;28;20076;-74
2023/11/28 00:09:59;;;;;;;9.50;4.68;;;3.40;93.20;;;;;;4993488;28;20041;-74
2023/11/28 00:12:26;;;;;;;7.90;4.43;;;3.30;92.70;;;;;;4991161;28;20069;-74
2023/11/28 00:14:52;;;;;;;9.80;4.82;;;3.40;92.50;;;;;;4992027;28;20125;-73
2023/11/28 00:17:17;;;;;;;11.15;6.60;;;3.40;92.70;;;;;;4991865;28;20045;-73
2023/11/28 00:19:43;;;;;;;10.05;5.07;;;3.30;92.80;;;;;;4992953;28;20053;-73
2023/11/28 00:22:09;;;;;;;10.35;5.70;;;3.40;93.40;;;;;;4992876;28;20037;-74
2023/11/28 00:24:35;;;;;;;13.35;5.35;;;3.50;94.00;;;;;;4993935;28;20026;-73
2023/11/28 00:27:01;;;;;;;9.05;4.88;;;3.40;94.00;;;;;;4992214;28;20030;-73
2023/11/28 00:29:26;;;;;;;10.70;4.20;;;3.40;93.40;;;;;;4992750;28;20034;-73
2023/11/28 00:31:52;;;;;;;10.27;4.63;;;3.30;92.90;;;;;;4993876;28;20036;-74
2023/11/28 00:34:18;;;;;;;9.35;4.78;;;3.20;92.40;;;;;;4992962;28;20044;-73
2023/11/28 00:36:44;;;;;;;6.38;3.60;;;3.20;92.60;;;;;;4993868;28;20042;-73
2023/11/28 00:39:09;;;;;;;7.53;4.05;;;3.20;92.80;;;;;;4997395;28;20073;-73
2023/11/28 00:41:35;;;;;;;7.43;4.05;;;3.30;93.50;;;;;;4996059;28;20034;-73
2023/11/28 00:44:01;;;;;;;6.95;3.47;;;3.30;93.10;;;;;;4997285;28;20037;-73
2023/11/28 00:46:27;;;;;;;8.27;3.60;;;3.30;93.80;;;;;;4995063;28;26390;-74
2023/11/28 00:48:53;;;;;;;7.40;3.15;;;3.40;93.50;;;;;;4996082;28;20411;-73
2023/11/28 00:51:18;;;;;;;13.00;3.47;;;3.40;93.30;;;;;;4997199;28;20049;-73
2023/11/28 00:53:44;;;;;;;5.47;3.03;;;3.50;93.30;;;;;;4996533;28;20042;-73
2023/11/28 00:56:18;;;;;;;5.65;3.20;;;3.50;93.90;;;;;;4996322;28;20037;-73
2023/11/28 00:58:45;;;;;;;9.38;3.70;;;3.50;94.60;;;;;;4997257;28;20080;-73
2023/11/28 01:01:12;;;;;;;6.25;2.88;;;3.50;95.50;;;;;;4995751;28;20720;-74
2023/11/28 01:03:38;;;;;;;5.47;3.58;;;3.50;95.50;;;;;;4995336;28;20569;-73
2023/11/28 01:06:05;;;;;;;7.85;3.42;;;3.40;95.60;;;;;;4997564;28;20500;-73
2023/11/28 01:08:31;;;;;;;9.02;3.50;;;3.40;96.50;;;;;;4997124;28;20045;-73
2023/11/28 01:10:56;;;;;;;7.65;3.22;;;3.40;97.10;;;;;;4995287;28;20025;-73
2023/11/28 01:13:22;;;;;;;6.65;3.67;;;3.30;97.00;;;;;;4996547;28;20037;-74
2023/11/28 01:15:48;;;;;;;5.68;2.75;;;3.20;97.40;;;;;;4996933;28;20041;-73
2023/11/28 01:18:13;;;;;;;6.72;3.80;;;3.10;98.50;;;;;;4996187;28;20042;-73
2023/11/28 01:20:41;;;;;;;6.63;3.78;;;3.00;99.00;;;;;;4995524;28;20383;-75
2023/11/28 01:23:07;;;;;;;8.82;3.13;;;2.90;99.90;;;;;;4997096;28;20038;-73
2023/11/28 01:25:33;;;;;;;11.05;3.90;;;2.70;99.90;;;;;;4996124;28;20259;-73
2023/11/28 01:27:58;;;;;;;9.43;4.22;;;2.60;99.90;;;;;;4995949;28;20030;-73
2023/11/28 01:30:24;;;;;;;9.90;4.25;;;2.50;99.90;;;;;;4997016;28;20033;-73
2023/11/28 01:32:50;;;;;;;8.68;4.13;;;2.50;99.90;;;;;;4996405;28;20500;-73
2023/11/28 01:35:15;;;;;;;7.70;3.90;;;2.50;99.90;;;;;;4994426;28;20068;-74
2023/11/28 01:37:41;;;;;;;8.88;4.25;;;2.50;99.90;;;;;;4995743;28;20042;-73
2023/11/28 01:40:07;;;;;;;13.13;4.40;;;2.60;99.90;;;;;;4995261;28;20025;-75
2023/11/28 01:42:33;;;;;;;13.98;4.38;;;2.50;99.90;;;;;;4996367;28;20214;-75
2023/11/28 01:44:59;;;;;;;8.73;4.30;;;2.60;99.90;;;;;;4994656;28;20120;-73
2023/11/28 01:47:25;;;;;;;5.80;3.10;;;2.70;99.90;;;;;;4995250;28;20049;-73
2023/11/28 01:49:51;;;;;;;8.40;4.40;;;2.60;99.90;;;;;;4995352;28;20036;-73
2023/11/28 01:52:17;;;;;;;8.77;4.63;;;2.50;99.90;;;;;;4995653;28;20030;-73
2023/11/28 01:54:43;;;;;;;6.65;3.55;;;2.50;99.90;;;;;;4995275;28;20030;-73
2023/11/28 01:57:12;;;;;;;8.25;3.90;;;2.40;99.90;;;;;;4995842;28;20679;-73
2023/11/28 01:59:40;;;;;;;9.90;4.28;;;2.50;99.90;;;;;;4995258;28;20038;-73
2023/11/28 02:02:08;;;;;;;9.63;4.07;;;2.50;99.90;;;;;;4995723;28;20484;-73
2023/11/28 02:04:34;;;;;;;8.00;4.05;;;2.70;99.90;;;;;;4996149;28;20077;-76
2023/11/28 02:07:00;;;;;;;7.05;3.42;;;2.70;99.90;;;;;;4995221;28;20404;-73
2023/11/28 02:09:27;;;;;;;5.57;2.92;;;2.90;99.90;;;;;;4995161;28;20229;-73
2023/11/28 02:11:52;;;;;;;6.97;3.65;;;2.90;99.90;;;;;;4995795;28;20120;-73
2023/11/28 02:14:18;;;;;;;6.65;3.63;;;2.90;99.90;;;;;;4994899;28;20533;-77
2023/11/28 02:16:45;;;;;;;7.28;3.03;;;2.90;99.90;;;;;;4993177;28;20041;-73
2023/11/28 02:19:10;;;;;;;7.07;3.40;;;3.00;99.90;;;;;;4995988;28;20507;-73
2023/11/28 02:21:36;;;;;;;6.50;3.60;;;3.00;99.90;;;;;;4995950;28;20038;-73
2023/11/28 02:24:04;;;;;;;4.93;2.67;;;3.00;99.90;;;;;;4994089;28;20052;-73
2023/11/28 02:26:30;;;;;;;5.68;3.20;;;3.20;99.90;;;;;;4994135;28;20045;-75
2023/11/28 02:28:57;;;;;;;7.65;3.45;;;3.20;99.90;;;;;;4995097;28;20112;-73
2023/11/28 02:31:23;;;;;;;5.63;2.92;;;3.00;99.90;;;;;;4995038;28;20935;-73
2023/11/28 02:33:49;;;;;;;6.05;3.38;;;3.10;99.90;;;;;;4995002;28;20096;-73
2023/11/28 02:36:15;;;;;;;6.80;3.38;;;3.00;99.90;;;;;;4995469;28;20551;-73
2023/11/28 02:38:44;;;;;;;6.43;2.72;;;2.90;99.90;;;;;;4994963;28;20105;-73
2023/11/28 02:41:09;;;;;;;6.72;3.08;;;2.90;99.90;;;;;;4995617;28;20030;-73
2023/11/28 02:43:35;;;;;;;5.53;2.75;;;3.00;99.90;;;;;;4994479;28;20038;-73
2023/11/28 02:46:01;;;;;;;6.05;2.90;;;3.00;99.90;;;;;;4992585;28;20135;-73
2023/11/28 02:48:26;;;;;;;7.28;2.97;;;3.00;99.90;;;;;;4995972;28;20034;-73
2023/11/28 02:50:52;;;;;;;6.57;2.92;;;2.90;99.90;;;;;;4994575;28;20026;-73
2023/11/28 02:53:18;;;;;;;7.07;2.97;;;3.00;99.90;;;;;;4994132;28;20116;-73
2023/11/28 02:55:44;;;;;;;4.88;2.60;;;2.90;99.90;;;;;;4994865;28;20034;-72
2023/11/28 02:58:09;;;;;;;5.20;2.67;;;2.90;99.90;;;;;;4994991;28;20034;-73
2023/11/28 03:00:35;;;;;;;5.70;3.63;;;2.80;99.90;;;;;;4991189;28;20030;-73
2023/11/28 03:03:01;;;;;;;10.68;3.83;;;2.80;99.90;;;;;;4994443;28;20042;-73
2023/11/28 03:05:27;;;;;;;9.38;3.85;;;2.90;99.90;;;;;;4994435;28;20113;-73
2023/11/28 03:07:53;;;;;;;7.50;4.15;;;2.90;99.90;;;;;;4994158;28;20049;-73
2023/11/28 03:10:19;;;;;;;6.03;3.17;;;3.00;99.90;;;;;;4994858;28;20034;-73
2023/11/28 03:12:45;;;;;;;5.60;3.17;;;2.90;99.90;;;;;;4994603;28;20042;-74
2023/11/28 03:15:11;;;;;;;6.57;3.75;;;2.90;99.90;;;;;;4994801;28;20522;-73
2023/11/28 03:17:36;;;;;;;7.93;3.08;;;3.00;99.90;;;;;;4992901;28;20050;-73
2023/11/28 03:20:03;;;;;;;7.13;3.42;;;3.10;99.90;;;;;;4994162;28;20607;-73
2023/11/28 03:22:29;;;;;;;5.22;3.20;;;3.10;99.90;;;;;;4995727;28;20036;-73
2023/11/28 03:24:55;;;;;;;7.07;3.60;;;3.00;99.90;;;;;;4992785;28;20113;-73
2023/11/28 03:27:21;;;;;;;8.70;3.03;;;2.90;99.90;;;;;;4992798;28;20034;-73
2023/11/28 03:29:46;;;;;;;8.15;4.35;;;2.90;99.90;;;;;;4995099;28;20388;-72
2023/11/28 03:32:12;;;;;;;5.80;3.08;;;3.00;99.90;;;;;;4993522;28;20103;-73
2023/11/28 03:34:41;;;;;;;7.32;3.20;;;3.00;99.90;;;;;;4995055;28;20030;-73
2023/11/28 03:37:08;;;;;;;6.13;3.03;;;3.10;99.90;;;;;;4994216;28;20117;-73
2023/11/28 03:39:33;;;;;;;5.88;3.30;;;3.20;99.90;;;;;;4993227;28;20033;-73
2023/11/28 03:41:59;;;;;;;7.25;3.20;;;3.20;99.90;;;;;;4994527;28;20096;-73
2023/11/28 03:44:25;;;;;;;9.07;3.65;;;3.10;99.90;;;;;;4993939;28;20101;-74
2023/11/28 03:46:50;;;;;;;7.07;3.50;;;3.00;99.90;;;;;;4993788;28;20050;-73
2023/11/28 03:49:16;;;;;;;6.85;3.03;;;3.00;99.90;;;;;;4994084;28;20038;-74
2023/11/28 03:51:42;;;;;;;4.22;2.35;;;3.10;99.90;;;;;;4994980;28;20377;-73
2023/11/28 03:54:08;;;;;;;6.60;2.85;;;3.10;99.90;;;;;;4993090;28;20060;-73
2023/11/28 03:56:33;;;;;;;5.72;3.10;;;3.20;99.90;;;;;;4994137;28;20492;-73
2023/11/28 03:58:59;;;;;;;6.40;3.65;;;3.20;99.50;;;;;;4993646;28;21645;-73
2023/11/28 04:01:25;;;;;;;6.72;3.42;;;3.10;99.90;;;;;;4992340;28;20091;-73
2023/11/28 04:03:50;;;;;;;4.95;2.80;;;3.10;99.90;;;;;;4987091;28;20054;-74
2023/11/28 04:06:16;;;;;;;5.40;2.75;;;3.20;99.90;;;;;;4990123;28;20473;-73
2023/11/28 04:08:41;;;;;;;6.40;3.10;;;3.20;99.90;;;;;;4987622;28;20034;-74
2023/11/28 04:11:07;;;;;;;6.78;2.53;;;3.20;99.90;;;;;;4988284;28;20041;-73
2023/11/28 04:13:33;;;;;;;5.22;2.67;;;3.10;99.90;;;;;;4994013;28;20038;-74
2023/11/28 04:15:59;;;;;;;7.03;2.72;;;3.10;99.90;;;;;;4991801;28;20080;-73
2023/11/28 04:18:24;;;;;;;6.93;3.45;;;3.20;99.90;;;;;;4989514;28;20069;-74
2023/11/28 04:20:50;;;;;;;6.85;3.42;;;3.10;99.90;;;;;;4991374;28;20954;-75
2023/11/28 04:23:15;;;;;;;8.45;4.32;;;3.10;99.90;;;;;;4990611;28;20042;-73
2023/11/28 04:25:42;;;;;;;7.53;4.78;;;3.00;99.90;;;;;;4990363;28;20026;-77
2023/11/28 04:28:08;;;;;;;9.00;4.28;;;2.90;99.90;;;;;;4992644;28;20038;-74
2023/11/28 04:30:33;;;;;;;9.90;4.28;;;2.80;99.90;;;;;;4992332;28;20030;-73
2023/11/28 04:32:59;;;;;;;8.85;3.65;;;2.90;99.90;;;;;;4992700;28;20041;-74
2023/11/28 04:35:25;;;;;;;7.55;3.90;;;2.90;99.90;;;;;;4994510;28;20072;-78
2023/11/28 04:37:50;;;;;;;8.48;3.72;;;3.00;99.90;;;;;;4992927;28;20080;-73
2023/11/28 04:40:16;;;;;;;4.97;2.80;;;2.90;99.90;;;;;;4993257;28;20042;-74
2023/11/28 04:42:42;;;;;;;5.28;3.17;;;3.00;98.40;;;;;;4993232;28;20038;-74
2023/11/28 04:45:11;;;;;;;6.55;3.25;;;3.10;98.60;;;;;;4993992;28;20139;-73
2023/11/28 04:47:37;;;;;;;9.13;4.30;;;3.20;97.60;;;;;;4990796;28;20045;-74
2023/11/28 04:50:04;;;;;;;6.05;3.58;;;3.10;98.80;;;;;;4990189;28;21028;-74
2023/11/28 04:52:30;;;;;;;10.05;4.15;;;3.00;99.60;;;;;;4990077;28;20037;-74
2023/11/28 04:54:55;;;;;;;7.75;3.10;;;2.90;99.20;;;;;;4989708;28;20053;-74
2023/11/28 04:57:21;;;;;;;9.20;3.50;;;3.00;99.30;;;;;;4989632;28;20042;-75
2023/11/28 04:59:47;;;;;;;7.43;3.00;;;3.10;98.10;;;;;;4991820;28;20404;-74
2023/11/28 05:02:13;;;;;;;7.70;3.72;;;3.20;98.20;;;;;;4988603;28;20236;-73
2023/11/28 05:04:38;;;;;;;9.43;3.97;;;3.30;97.30;;;;;;4991469;28;20641;-74
2023/11/28 05:07:04;;;;;;;8.82;3.78;;;3.20;97.50;;;;;;4989482;28;20721;-73
2023/11/28 05:09:30;;;;;;;5.70;3.15;;;3.20;97.70;;;;;;4990055;28;20045;-75
2023/11/28 05:11:55;;;;;;;7.70;3.30;;;3.20;97.90;;;;;;4991046;28;20030;-74
2023/11/28 05:14:21;;;;;;;20.17;11.70;;;3.20;98.10;;;;;;4989845;28;20886;-74
2023/11/28 05:16:47;;;;;;;7.68;4.80;;;3.20;98.30;;;;;;4990041;28;20403;-73
2023/11/28 05:19:13;;;;;;;7.05;3.75;;;3.20;98.80;;;;;;4992035;28;20030;-74
2023/11/28 05:21:38;;;;;;;11.48;4.22;;;3.20;98.60;;;;;;4989531;28;20437;-75
2023/11/28 05:24:04;;;;;;;6.82;3.40;;;3.00;99.30;;;;;;4989647;28;20046;-73
2023/11/28 05:26:30;;;;;;;9.13;5.38;;;3.00;98.70;;;;;;4989809;28;20095;-73
2023/11/28 05:28:55;;;;;;;11.65;7.85;;;2.90;99.00;;;;;;4989494;28;20038;-74
2023/11/28 05:31:21;;;;;;;12.57;5.13;;;3.10;98.10;;;;;;4990313;28;20026;-74
2023/11/28 05:33:47;;;;;;;8.02;4.40;;;3.10;98.50;;;;;;4988937;28;20073;-76
2023/11/28 05:36:13;;;;;;;8.95;4.00;;;2.90;98.70;;;;;;4989271;28;20420;-74
2023/11/28 05:38:39;;;;;;;6.82;3.53;;;2.90;98.50;;;;;;4990888;28;20041;-75
2023/11/28 05:41:04;;;;;;;8.38;3.80;;;2.80;97.80;;;;;;4989587;28;20690;-74
2023/11/28 05:43:31;;;;;;;7.35;3.80;;;2.90;97.90;;;;;;4989760;28;20030;-73
2023/11/28 05:45:57;;;;;;;6.82;3.58;;;3.00;97.60;;;;;;4990494;28;20659;-75
2023/11/28 05:48:26;;;;;;;6.32;2.90;;;2.90;97.80;;;;;;4989447;28;20042;-74
2023/11/28 05:50:52;;;;;;;18.27;3.75;;;2.70;98.10;;;;;;4988120;28;20048;-73
2023/11/28 05:53:21;;;;;;;8.23;3.30;;;2.60;98.50;;;;;;4990326;28;20034;-75
2023/11/28 05:55:47;;;;;;;6.05;3.22;;;2.50;99.00;;;;;;4991033;28;20117;-74
2023/11/28 05:58:13;;;;;;;8.38;3.17;;;2.50;98.80;;;;;;4991315;28;20026;-75
2023/11/28 06:00:40;;;;;;;6.95;3.45;;;2.40;99.10;;;;;;4990008;28;20033;-74
2023/11/28 06:03:06;;;;;;;7.60;3.30;;;2.30;99.20;;;;;;4990132;28;20085;-74
2023/11/28 06:05:32;;;;;;;7.75;3.60;;;2.10;98.80;;;;;;4989277;28;21317;-74
2023/11/28 06:07:57;;;;;;;7.60;3.60;;;2.10;98.80;;;;;;4988000;28;20050;-76
2023/11/28 06:10:23;;;;;;;8.40;4.20;;;1.90;98.90;;;;;;4990084;28;20092;-73
2023/11/28 06:12:49;;;;;;;8.60;3.75;;;1.90;99.40;;;;;;4987510;28;20064;-75
2023/11/28 06:15:15;;;;;;;6.68;3.95;;;1.70;99.90;;;;;;4991933;28;20022;-74
2023/11/28 06:17:40;;;;;;;8.57;4.10;;;1.90;99.80;;;;;;4988783;28;20041;-73
2023/11/28 06:20:06;;;;;;;6.72;3.15;;;2.00;99.60;;;;;;4985201;28;20045;-73
2023/11/28 06:22:32;;;;;;;5.18;3.28;;;2.20;99.90;;;;;;4993904;28;20061;-74
2023/11/28 06:24:58;;;;;;;7.63;3.33;;;2.30;99.50;;;;;;4988108;28;20102;-73
2023/11/28 06:27:25;;;;;;;6.82;3.45;;;2.20;99.20;;;;;;4987460;28;20048;-72
2023/11/28 06:29:51;;;;;;;9.75;3.25;;;2.00;99.70;;;;;;4988066;28;20029;-72
2023/11/28 06:32:17;;;;;;;7.18;3.38;;;2.10;99.50;;;;;;4987063;28;20026;-72
2023/11/28 06:34:44;;;;;;;6.07;3.35;;;1.80;99.60;;;;;;4986696;28;20041;-72
2023/11/28 06:37:10;;;;;;;6.80;2.97;;;1.90;99.40;;;;;;4988449;28;20036;-72
2023/11/28 06:39:36;;;;;;;6.50;3.17;;;1.90;99.20;;;;;;4986726;28;20666;-72
2023/11/28 06:42:02;;;;;;;7.65;3.83;;;2.10;98.90;;;;;;4985958;28;20042;-72
2023/11/28 06:44:28;;;;;;;7.13;3.17;;;2.10;99.00;;;;;;4987614;28;20053;-72
2023/11/28 06:46:54;;;;;;;7.60;3.88;;;2.10;98.90;;;;;;4986425;28;20052;-71
2023/11/28 06:49:20;;;;;;;6.65;3.22;;;2.10;98.50;;;;;;4985939;28;20048;-72
2023/11/28 06:51:46;;;;;;;8.48;3.65;;;2.00;99.10;;;;;;4987646;28;20030;-72
2023/11/28 06:54:12;;;;;;;8.35;3.45;;;2.10;98.70;;;;;;4984985;28;20030;-72
2023/11/28 06:56:38;;;;;;;7.70;3.42;;;2.10;98.90;;;;;;4984178;28;20137;-72
2023/11/28 06:59:04;;;;;;;6.30;3.30;;;2.00;99.20;;;;;;4987289;28;20036;-72
2023/11/28 07:01:30;;;;;;;6.20;3.53;;;2.10;99.00;;;;;;4987300;28;20037;-72
2023/11/28 07:03:56;;;;;;;6.78;3.40;;;2.10;99.50;;;;;;4986211;28;20077;-72
2023/11/28 07:06:21;;;;;;;8.30;4.15;;;2.00;99.60;;;;;;4987878;28;20061;-72
2023/11/28 07:08:48;;;;;;;10.55;3.92;;;2.00;99.20;;;;;;4987298;28;20033;-72
2023/11/28 07:11:20;;;;;;;17.00;4.85;;;1.80;99.80;;;;;;4987041;28;20037;-72
2023/11/28 07:13:47;;;;;;;8.48;3.70;;;1.80;99.90;;;;;;4988705;28;20038;-72
2023/11/28 07:16:13;;;;;;;6.43;3.20;;;1.70;99.80;;;;;;4986827;28;20041;-72
2023/11/28 07:18:39;;;;;;;7.72;3.45;;;1.80;99.20;;;;;;4986865;28;20084;-72
2023/11/28 07:21:05;;;;;;;10.52;2.80;;;2.00;99.60;;;;;;4987425;28;20038;-72
2023/11/28 07:23:30;;;;;;;6.32;2.92;;;1.90;99.80;;;;;;4987730;28;20630;-72
2023/11/28 07:25:56;;;;;;;5.85;3.00;;;1.90;99.50;;;;;;4986076;28;20042;-72
2023/11/28 07:28:22;;;;;;;7.00;3.28;;;1.90;99.40;;;;;;4987974;28;20036;-72
2023/11/28 07:30:47;;;;;;;7.95;3.92;;;2.10;99.30;;;;;;4985696;28;20026;-72
2023/11/28 07:33:13;;;;;;;6.22;2.97;;;2.30;99.00;;;;;;4986208;28;20060;-72
2023/11/28 07:35:39;;;;;;;8.63;3.13;;;2.20;98.90;;;;;;4988252;28;20026;-72
2023/11/28 07:38:05;;;;;;;9.95;3.35;;;2.30;99.10;;;;;;4986274;28;20040;-72
2023/11/28 07:40:33;;;;;;;7.63;3.05;;;2.30;99.20;;;;;;4986328;28;20025;-72
2023/11/28 07:43:00;;;;;;;7.28;2.97;;;2.30;99.00;;;;;;4988626;28;20042;-71
2023/11/28 07:45:26;;;;;;;7.80;3.80;;;2.30;98.90;;;;;;4988377;28;20034;-72
2023/11/28 07:47:52;;;;;;;8.38;3.15;;;2.30;99.10;;;;;;4990864;28;21307;-72
2023/11/28 07:50:18;;;;;;;8.43;3.28;;;2.30;99.10;;;;;;4993572;28;20041;-72
2023/11/28 07:52:44;;;;;;;6.93;3.10;;;2.30;99.10;;;;;;4988360;28;20839;-71
2023/11/28 07:55:11;;;;;;;8.55;3.15;;;2.40;99.00;;;;;;4990162;28;20049;-72
2023/11/28 07:57:37;;;;;;;8.45;3.33;;;2.20;99.90;;;;;;4992001;28;20565;-73
2023/11/28 08:00:05;;;;;;;9.20;3.85;;;2.20;99.30;;;;;;4993071;28;20033;-71
2023/11/28 08:02:31;;;;;;;7.35;3.47;;;2.20;99.30;;;;;;4990612;28;20046;-73
2023/11/28 08:04:57;;;;;;;6.25;3.13;;;2.20;99.80;;;;;;4992496;28;20605;-73
2023/11/28 08:07:23;;;;;;;7.55;3.45;;;2.10;99.90;;;;;;4991137;28;20037;-74
2023/11/28 08:09:49;;;;;;;4.82;2.80;;;2.00;99.90;;;;;;4991862;28;20649;-73
2023/11/28 08:12:14;;;;;;;7.60;3.30;;;2.10;99.90;;;;;;4992032;28;20038;-74
2023/11/28 08:14:40;;;;;;;11.40;3.85;;;2.20;99.70;;;;;;4990204;28;21549;-74
2023/11/28 08:17:06;;;;;;;16.95;5.90;;;2.30;99.50;;;;;;4990418;28;20049;-75
2023/11/28 08:19:32;;;;;;;9.70;3.35;;;2.20;99.80;;;;;;4992068;28;20042;-76
2023/11/28 08:21:58;;;;;;;7.72;2.80;;;2.20;99.90;;;;;;4991112;28;20033;-74
2023/11/28 08:24:24;;;;;;;7.25;3.45;;;2.20;99.20;;;;;;4991469;28;20065;-75
2023/11/28 08:26:49;;;;;;;5.22;2.75;;;2.30;99.60;;;;;;4992665;28;20486;-75
2023/11/28 08:29:15;;;;;;;5.28;2.97;;;2.30;99.00;;;;;;4990296;28;20041;-75
2023/11/28 08:31:41;;;;;;;8.07;4.05;;;2.40;98.90;;;;;;4991921;28;20034;-74
2023/11/28 08:34:06;;;;;;;7.68;4.40;;;2.40;99.40;;;;;;4991766;28;20506;-75
2023/11/28 08:36:32;;;;;;;7.47;3.80;;;2.10;99.90;;;;;;4991149;28;20074;-74
2023/11/28 08:38:58;;;;;;;6.68;3.28;;;1.90;99.90;;;;;;4991512;28;20042;-74
2023/11/28 08:41:23;;;;;;;8.38;3.50;;;2.00;99.90;;;;;;4992257;28;20033;-74
2023/11/28 08:43:49;;;;;;;5.95;2.47;;;2.20;99.90;;;;;;4990976;28;20037;-74
2023/11/28 08:46:15;;;;;;;6.90;3.45;;;2.80;99.20;;;;;;4990548;28;20502;-74
2023/11/28 08:48:43;;;;;;;7.68;2.83;;;2.60;99.60;;;;;;4991432;28;20050;-73
2023/11/28 08:51:09;;;;;;;6.65;2.97;;;2.40;99.90;;;;;;4990383;28;20091;-74
2023/11/28 08:53:35;;;;;;;4.90;2.70;;;2.20;99.80;;;;;;4990947;28;20034;-73
2023/11/28 08:56:00;;;;;;;6.65;2.65;;;2.40;99.50;;;;;;4992255;28;20117;-73
2023/11/28 08:58:26;;;;;;;5.78;2.78;;;2.60;98.70;;;;;;4989874;28;20045;-72
2023/11/28 09:00:53;;;;;;;8.68;2.60;;;2.70;98.50;;;;;;4990984;28;20038;-73
2023/11/28 09:03:20;;;;;;;5.82;2.67;;;2.60;98.50;;;;;;4991639;28;20070;-73
2023/11/28 09:05:46;;;;;;;5.75;2.40;;;2.80;97.50;;;;;;4989632;28;20034;-73
2023/11/28 09:08:13;;;;;;;8.05;2.70;;;2.90;97.60;;;;;;4991028;28;20551;-73
2023/11/28 09:10:39;;;;;;;7.20;3.05;;;2.90;97.70;;;;;;4992284;28;20064;-73
2023/11/28 09:13:05;;;;;;;8.93;3.42;;;2.90;97.70;;;;;;4993837;28;20475;-72
2023/11/28 09:15:30;;;;;;;8.80;3.33;;;3.00;97.70;;;;;;4993966;28;20814;-73
2023/11/28 09:17:56;;;;;;;6.97;3.67;;;3.80;99.90;;;;;;4994311;28;20042;-73
2023/11/28 09:20:21;;;;;;;10.43;3.95;;;3.50;97.30;;;;;;4993584;28;20515;-74
2023/11/28 09:22:47;;;;;;;13.38;3.80;;;3.20;97.50;;;;;;4994561;28;20457;-73
2023/11/28 09:25:14;;;;;;;6.78;3.95;;;3.20;97.40;;;;;;4993672;28;20073;-73
2023/11/28 09:27:40;;;;;;;5.57;3.10;;;3.10;97.40;;;;;;4992014;28;20554;-73
2023/11/28 09:30:06;;;;;;;8.60;3.30;;;3.20;97.70;;;;;;4993551;28;20038;-73
2023/11/28 09:32:32;;;;;;;7.65;2.78;;;3.00;98.10;;;;;;5007771;28;20381;-73
2023/11/28 09:34:58;;;;;;;6.78;3.08;;;3.20;97.70;;;;;;4992499;28;20037;-73
2023/11/28 09:37:24;;;;;;;5.28;2.45;;;3.40;97.00;;;;;;4993391;28;20041;-73
2023/11/28 09:39:50;;;;;;;6.10;2.55;;;3.50;97.10;;;;;;4993705;28;20102;-73
2023/11/28 09:42:18;;;;;;;7.70;2.95;;;3.50;97.20;;;;;;4992807;28;20030;-73
2023/11/28 09:44:48;;;;;;;5.47;2.80;;;3.50;97.40;;;;;;4993122;28;20042;-73
2023/11/28 09:47:15;;;;;;;4.65;2.80;;;3.60;97.20;;;;;;4992627;28;20052;-73
2023/11/28 09:49:42;;;;;;;7.15;3.03;;;3.50;97.50;;;;;;4992207;28;20030;-73
2023/11/28 09:52:08;;;;;;;6.55;2.70;;;3.50;97.50;;;;;;4992934;28;20184;-73
2023/11/28 09:54:38;;;;;;;6.07;2.70;;;3.60;97.50;;;;;;4992511;28;20041;-74
2023/11/28 09:57:06;;;;;;;6.72;3.13;;;3.60;97.20;;;;;;4992312;28;20634;-75
2023/11/28 09:59:36;;;;;;;6.30;2.60;;;3.60;97.30;;;;;;4992186;28;20058;-73
2023/11/28 10:02:03;;;;;;;6.88;2.47;;;3.60;97.50;;;;;;4993040;28;20038;-73
2023/11/28 10:04:29;;;;;;;5.57;2.50;;;3.60;97.60;;;;;;4991047;28;20069;-73
2023/11/28 10:07:00;;;;;;;5.28;2.60;;;3.50;97.30;;;;;;4989540;28;20683;-73
2023/11/28 10:09:29;;;;;;;5.72;2.40;;;3.60;97.30;;;;;;4988681;28;20038;-74
2023/11/28 10:11:57;;;;;;;4.78;2.72;;;3.60;97.60;;;;;;4992212;28;20913;-73
2023/11/28 10:14:23;;;;;;;4.63;2.08;;;3.50;97.40;;;;;;4990682;28;20565;-73
2023/11/28 10:16:51;;;;;;;5.82;2.88;;;3.60;97.30;;;;;;4989220;28;20033;-73
2023/11/28 10:19:17;;;;;;;5.90;3.63;;;3.60;97.30;;;;;;4987769;28;20103;-73
2023/11/28 10:21:44;;;;;;;4.07;2.38;;;3.70;97.50;;;;;;4990624;28;20030;-73
2023/11/28 10:24:10;;;;;;;8.27;3.33;;;3.60;97.70;;;;;;4989074;28;20053;-73
2023/11/28 10:26:39;;;;;;;5.18;2.80;;;3.60;98.20;;;;;;4988640;28;20045;-73
2023/11/28 10:29:06;;;;;;;6.28;3.13;;;3.70;97.90;;;;;;4991427;28;20044;-73
2023/11/28 10:31:50;;;;;;;6.10;3.05;;;3.80;98.20;;;;;;4989759;28;20041;-73
2023/11/28 10:34:16;;;;;;;;;;;4.00;97.90;;;;;;4989755;28;20038;-73
2023/11/28 10:36:43;;;;;;;5.97;3.00;;;4.10;98.00;;;;;;4990438;28;19944;-73
2023/11/28 10:39:10;;;;;;;6.00;2.92;;;4.20;97.80;;;;;;4990592;28;20065;-73
2023/11/28 10:41:38;;;;;;;6.90;3.22;;;4.30;97.80;;;;;;4989036;28;20025;-73
2023/11/28 10:44:04;;;;;;;6.47;3.22;;;4.30;97.90;;;;;;4991120;28;20034;-73
2023/11/28 10:46:34;;;;;;;7.45;3.72;;;4.40;98.00;;;;;;4989440;28;20107;-73
2023/11/28 10:49:00;;;;;;;9.10;3.53;;;4.40;97.60;;;;;;4989737;28;20038;-73
2023/11/28 10:51:28;;;;;;;7.35;3.85;;;4.40;97.20;;;;;;4988549;28;20586;-73
2023/11/28 10:53:57;;;;;;;8.15;4.63;;;4.40;96.80;;;;;;4989497;28;20104;-73
2023/11/28 10:56:22;;;;;;;7.95;3.67;;;4.50;96.80;;;;;;4990298;28;20034;-73
2023/11/28 10:58:48;;;;;;;7.93;4.00;;;4.50;96.60;;;;;;4989434;28;20123;-73
2023/11/28 11:01:15;;;;;;;11.75;8.60;;;4.60;96.30;;;;;;4988773;28;20042;-73
2023/11/28 11:03:42;;;;;;;14.02;7.50;;;4.70;96.80;;;;;;4989793;28;21316;-73
2023/11/28 11:06:08;;;;;;;8.95;5.88;;;4.90;97.10;;;;;;4989920;28;21037;-73
2023/11/28 11:08:35;;;;;;;6.45;4.05;;;5.00;96.60;;;;;;4988585;28;20044;-72
2023/11/28 11:11:01;;;;;;;7.15;4.43;;;5.20;96.70;;;;;;4989936;28;20428;-73
2023/11/28 11:13:45;;;;;;;8.52;4.78;;;5.30;96.50;;;;;;4988914;28;20546;-73
2023/11/28 11:16:15;;;;;;;8.85;3.92;;;5.50;96.40;;;;;;4988307;28;20044;-73
2023/11/28 11:18:43;;;;;;;7.22;3.97;;;5.40;96.30;;;;;;4989316;28;20058;-73
2023/11/28 11:21:33;;;;;;;8.20;3.58;;;5.40;96.50;;;;;;4988285;28;20112;-73
2023/11/28 11:24:00;;;;;;;7.35;3.72;;;5.50;96.10;;;;;;4988955;28;20124;-73
2023/11/28 11:26:39;;;;;;;7.85;4.28;;;5.60;96.20;;;;;;4987949;28;20033;-73
2023/11/28 11:29:26;;;;;;;10.60;3.97;;;5.80;96.20;;;;;;4989264;28;20546;-73
2023/11/28 11:31:55;;;;;;;8.63;4.10;;;5.80;95.60;;;;;;4989270;28;20100;-73
2023/11/28 11:34:42;;;;;;;6.72;3.92;;;6.00;95.90;;;;;;4988346;28;20048;-73
2023/11/28 11:37:17;;;;;;;6.30;4.00;;;6.10;96.00;;;;;;4988991;28;20061;-73
2023/11/28 11:39:48;;;;;;;8.25;4.30;;;6.20;95.50;;;;;;4989083;28;20477;-73
2023/11/28 11:42:16;;;;;;;6.45;4.03;;;6.10;95.00;;;;;;4988231;28;21332;-73
2023/11/28 11:44:46;;;;;;;6.57;3.78;;;6.20;95.30;;;;;;4987886;28;20096;-73
2023/11/28 11:47:22;;;;;;;6.55;3.63;;;6.20;95.10;;;;;;4989426;28;20095;-73
2023/11/28 11:49:50;;;;;;;9.40;4.43;;;6.20;94.90;;;;;;4988556;28;20477;-73
2023/11/28 11:52:17;;;;;;;7.90;3.78;;;6.10;94.70;;;;;;4988488;28;20046;-73
2023/11/28 11:54:44;;;;;;;7.47;3.90;;;6.20;94.80;;;;;;4989146;28;20030;-73
2023/11/28 11:57:11;;;;;;;7.20;3.42;;;6.40;95.40;;;;;;4988266;28;20033;-73
2023/11/28 11:59:40;;;;;;;5.60;3.67;;;6.50;94.90;;;;;;4988988;28;20034;-74
2023/11/28 12:02:05;;;;;;;8.48;3.50;;;6.70;94.30;;;;;;4989665;28;20985;-73
2023/11/28 12:04:32;;;;;;;7.93;3.90;;;6.70;94.80;;;;;;4989547;28;20054;-73
2023/11/28 12:07:06;;;;;;;6.82;3.90;;;6.60;94.10;;;;;;4990751;28;20609;-73
2023/11/28 12:09:35;;;;;;;8.77;3.42;;;6.60;94.50;;;;;;4989233;28;20792;-73
2023/11/28 12:12:04;;;;;;;5.38;2.80;;;6.80;94.80;;;;;;4986719;28;20723;-73
2023/11/28 12:14:31;;;;;;;7.57;3.55;;;6.90;94.50;;;;;;4988058;28;20041;-73
2023/11/28 12:16:58;;;;;;;6.00;3.03;;;7.00;94.50;;;;;;4988656;28;20441;-73
2023/11/28 12:19:23;;;;;;;6.97;3.35;;;7.10;94.00;;;;;;4987529;28;20041;-73
2023/11/28 12:21:49;;;;;;;7.07;3.13;;;7.10;93.90;;;;;;4987865;28;20500;-73
2023/11/28 12:24:15;;;;;;;8.68;3.65;;;7.20;93.90;;;;;;4986847;28;20029;-73
2023/11/28 12:26:41;;;;;;;6.35;2.67;;;7.30;94.40;;;;;;4988991;28;20397;-73
2023/11/28 12:29:07;;;;;;;8.90;3.15;;;7.40;94.10;;;;;;4989024;28;20034;-73
2023/11/28 12:31:34;;;;;;;4.78;2.53;;;7.30;93.70;;;;;;4987192;28;20040;-73
2023/11/28 12:34:00;;;;;;;6.38;2.78;;;7.10;93.60;;;;;;4990461;28;20035;-73
2023/11/28 12:36:27;;;;;;;9.65;3.40;;;7.00;93.40;;;;;;4991685;28;20041;-73
2023/11/28 12:39:01;;;;;;;6.25;2.83;;;7.00;93.80;;;;;;4992519;28;20411;-73
2023/11/28 12:41:40;;;;;;;6.07;2.88;;;7.10;93.60;;;;;;4990981;28;20046;-72
2023/11/28 12:44:10;;;;;;;5.55;3.00;;;7.10;93.50;;;;;;4991081;28;20037;-73
2023/11/28 12:46:38;;;;;;;7.53;3.35;;;7.10;93.30;;;;;;4992812;28;20054;-73
2023/11/28 12:49:05;;;;;;;5.75;3.03;;;7.00;93.70;;;;;;4992123;28;20094;-73
2023/11/28 12:51:31;;;;;;;6.22;3.35;;;7.10;93.50;;;;;;4992204;28;20032;-73